Time;durP1;ratioP1;P1;durP2;ratioP2;P2;SDS_P1;SDS_P2;PMS_P1;PMS_P2;Temp;Humidity;BMP_temperature;BMP_pressure;BME280_temperature;BME280_humidity;BME280_pressure;Samples;Min_cycle;Max_cycle;Signal;HPM_P1;HPM_P2
2023/07/28 00:00:35;;;;;;;1.27;0.93;;;;;;;18.55;71.01;99078.69;5095248;28;20383;-59
2023/07/28 00:03:05;;;;;;;0.73;0.73;;;;;;;18.54;70.80;99072.72;5094813;28;20036;-60
2023/07/28 00:05:34;;;;;;;0.70;0.70;;;;;;;18.49;70.74;99069.47;5094791;28;20295;-59
2023/07/28 00:08:03;;;;;;;0.50;0.50;;;;;;;18.49;70.61;99073.81;5094787;28;20040;-60
2023/07/28 00:10:32;;;;;;;0.60;0.60;;;;;;;18.52;70.52;99071.91;5094711;28;20036;-60
2023/07/28 00:13:02;;;;;;;0.40;0.40;;;;;;;18.57;70.08;99067.41;5094895;28;20402;-60
2023/07/28 00:15:31;;;;;;;0.40;0.40;;;;;;;18.64;69.06;99062.81;5095301;28;20068;-59
2023/07/28 00:18:01;;;;;;;1.43;1.23;;;;;;;18.66;67.75;99054.09;5094254;28;20119;-59
2023/07/28 00:20:32;;;;;;;0.73;0.73;;;;;;;18.70;66.99;99055.63;5094693;28;20043;-60
2023/07/28 00:23:01;;;;;;;1.15;0.88;;;;;;;18.77;66.24;99058.78;5094527;28;20104;-59
2023/07/28 00:25:30;;;;;;;0.40;0.40;;;;;;;18.78;65.62;99049.28;5095310;28;20040;-59
2023/07/28 00:27:59;;;;;;;0.40;0.40;;;;;;;18.81;65.51;99054.34;5094997;28;20413;-59
2023/07/28 00:30:28;;;;;;;0.50;0.50;;;;;;;18.83;65.07;99053.34;5093519;28;20040;-59
2023/07/28 00:32:57;;;;;;;0.40;0.40;;;;;;;18.87;65.37;99054.88;5094312;28;20044;-60
2023/07/28 00:35:25;;;;;;;0.45;0.45;;;;;;;18.89;65.28;99045.31;5094323;28;20165;-60
2023/07/28 00:37:56;;;;;;;0.55;0.55;;;;;;;18.88;65.05;99045.41;5094528;28;20032;-59
2023/07/28 00:40:25;;;;;;;1.02;1.02;;;;;;;18.89;64.88;99047.06;5093199;28;20385;-59
2023/07/28 00:42:54;;;;;;;0.85;0.85;;;;;;;18.91;64.83;99047.84;5094231;28;20516;-59
2023/07/28 00:45:23;;;;;;;0.50;0.50;;;;;;;18.93;64.60;99043.44;5093958;28;20195;-59
2023/07/28 00:47:52;;;;;;;0.60;0.60;;;;;;;18.95;64.52;99046.78;5094138;28;20074;-60
2023/07/28 00:50:22;;;;;;;0.50;0.50;;;;;;;18.98;64.52;99031.16;5094407;28;20080;-60
2023/07/28 00:52:51;;;;;;;0.60;0.60;;;;;;;19.01;64.55;99031.84;5092884;28;20161;-60
2023/07/28 00:55:24;;;;;;;0.50;0.50;;;;;;;19.02;64.49;99036.09;5092864;28;20036;-60
2023/07/28 00:57:53;;;;;;;0.50;0.50;;;;;;;19.02;64.46;99037.84;5092780;28;20050;-59
2023/07/28 01:00:21;;;;;;;0.60;0.60;;;;;;;19.03;64.20;99029.16;5093987;28;20064;-59
2023/07/28 01:02:50;;;;;;;1.25;1.15;;;;;;;19.07;64.47;99036.75;5093864;28;20048;-59
2023/07/28 01:05:22;;;;;;;0.57;0.57;;;;;;;19.07;64.49;99036.75;5093712;28;20074;-60
2023/07/28 01:08:00;;;;;;;0.60;0.60;;;;;;;19.08;64.42;99032.38;5093921;28;20052;-59
2023/07/28 01:10:33;;;;;;;0.47;0.47;;;;;;;19.07;64.44;99030.72;5092957;28;20048;-60
2023/07/28 01:13:02;;;;;;;0.85;0.85;;;;;;;19.07;64.26;99030.72;5094158;28;20036;-60
2023/07/28 01:15:31;;;;;;;1.10;0.68;;;;;;;19.08;64.33;99032.38;5093999;28;20040;-60
2023/07/28 01:18:00;;;;;;;0.70;0.70;;;;;;;19.06;64.46;99034.22;5093715;28;20504;-60
2023/07/28 01:20:35;;;;;;;0.65;0.65;;;;;;;19.06;64.51;99045.41;5092866;28;20032;-60
2023/07/28 01:23:10;;;;;;;0.50;0.50;;;;;;;19.09;64.53;99036.66;5094045;28;20101;-59
2023/07/28 01:25:51;;;;;;;0.70;0.70;;;;;;;19.12;64.78;99034.75;5093881;28;20063;-60
2023/07/28 01:28:22;;;;;;;0.60;0.60;;;;;;;19.10;64.90;99022.84;5092507;28;20068;-60
2023/07/28 01:30:51;;;;;;;0.65;0.65;;;;;;;19.09;64.82;99034.91;5097008;28;20044;-60
2023/07/28 01:33:20;;;;;;;0.55;0.55;;;;;;;19.11;64.78;99025.34;5097858;28;20048;-60
2023/07/28 01:35:49;;;;;;;0.60;0.60;;;;;;;19.13;65.11;99030.44;5097656;28;20134;-60
2023/07/28 01:38:18;;;;;;;0.70;0.70;;;;;;;19.13;65.03;99031.28;5097730;28;20059;-60
2023/07/28 01:40:47;;;;;;;0.50;0.50;;;;;;;19.15;64.82;99024.28;5097633;28;20040;-59
2023/07/28 01:43:16;;;;;;;0.60;0.60;;;;;;;19.11;64.46;99022.75;5096772;28;20436;-60
2023/07/28 01:45:46;;;;;;;0.50;0.50;;;;;;;19.12;64.51;99023.59;5097459;28;20132;-60
2023/07/28 01:48:15;;;;;;;0.52;0.52;;;;;;;19.11;64.98;99027.06;5096355;28;20044;-60
2023/07/28 01:50:44;;;;;;;0.77;0.77;;;;;;;19.08;64.64;99019.44;5096596;28;20070;-59
2023/07/28 01:53:13;;;;;;;0.60;0.60;;;;;;;19.05;65.21;99023.00;5096227;28;20036;-59
2023/07/28 01:55:42;;;;;;;0.60;0.60;;;;;;;19.03;65.42;99011.91;5096289;28;20051;-60
2023/07/28 01:58:11;;;;;;;0.57;0.57;;;;;;;18.99;65.60;99014.69;5096140;28;20040;-60
2023/07/28 02:00:40;;;;;;;0.50;0.50;;;;;;;18.94;66.08;99009.75;5096051;28;20067;-60
2023/07/28 02:03:10;;;;;;;2.25;0.80;;;;;;;18.97;66.22;99008.75;5096045;28;20044;-59
2023/07/28 02:05:39;;;;;;;0.50;0.50;;;;;;;18.97;66.27;99013.94;5097052;28;20046;-59
2023/07/28 02:08:08;;;;;;;0.55;0.55;;;;;;;18.98;67.00;99002.69;5096012;28;20140;-59
2023/07/28 02:10:37;;;;;;;0.40;0.40;;;;;;;18.86;67.88;99008.44;5096578;28;20042;-59
2023/07/28 02:13:06;;;;;;;0.70;0.70;;;;;;;18.82;67.91;98999.94;5095951;28;20085;-59
2023/07/28 02:15:35;;;;;;;0.65;0.65;;;;;;;18.78;68.62;99002.75;5095900;28;20047;-59
2023/07/28 02:18:08;;;;;;;0.60;0.60;;;;;;;18.71;69.00;98991.84;5097250;28;20044;-60
2023/07/28 02:20:38;;;;;;;0.47;0.47;;;;;;;18.69;68.82;99004.81;5095736;28;20044;-60
2023/07/28 02:23:07;;;;;;;0.55;0.55;;;;;;;18.67;68.35;99011.81;5097694;28;20500;-60
2023/07/28 02:25:36;;;;;;;0.60;0.60;;;;;;;18.68;68.17;99008.34;5095596;28;20131;-59
2023/07/28 02:28:06;;;;;;;0.63;0.60;;;;;;;18.65;68.70;99008.47;5096730;28;20044;-60
2023/07/28 02:30:35;;;;;;;0.50;0.50;;;;;;;18.58;69.33;99014.81;5096790;28;20409;-59
2023/07/28 02:33:04;;;;;;;1.00;0.90;;;;;;;18.48;69.90;99010.94;5095488;28;20082;-60
2023/07/28 02:35:33;;;;;;;0.73;0.73;;;;;;;18.46;70.20;99015.34;5096577;28;20069;-59
2023/07/28 02:38:03;;;;;;;0.50;0.50;;;;;;;18.37;70.86;99002.78;5095809;28;20040;-59
2023/07/28 02:40:34;;;;;;;0.82;0.63;;;;;;;18.36;71.13;99011.44;5096334;28;20272;-59
2023/07/28 02:43:02;;;;;;;0.65;0.65;;;;;;;18.25;71.22;99016.22;5096268;28;20126;-60
2023/07/28 02:45:31;;;;;;;0.52;0.52;;;;;;;18.22;71.92;99024.09;5095189;28;20501;-59
2023/07/28 02:48:00;;;;;;;0.55;0.55;;;;;;;18.15;72.12;99017.50;5096366;28;20123;-59
2023/07/28 02:50:29;;;;;;;0.63;0.60;;;;;;;18.13;72.10;99014.16;5095130;28;20067;-60
2023/07/28 02:52:58;;;;;;;0.60;0.60;;;;;;;18.14;72.17;99013.25;5095123;28;20044;-59
2023/07/28 02:55:28;;;;;;;0.50;0.50;;;;;;;18.16;72.50;99015.78;5095045;28;20042;-59
2023/07/28 02:57:58;;;;;;;0.40;0.40;;;;;;;18.08;72.44;99009.19;5095307;28;20141;-59
2023/07/28 03:00:26;;;;;;;0.50;0.50;;;;;;;18.08;72.66;99010.94;5096102;28;20051;-60
2023/07/28 03:02:55;;;;;;;0.53;0.53;;;;;;;18.10;72.65;99014.28;5094919;28;20123;-59
2023/07/28 03:05:25;;;;;;;0.50;0.50;;;;;;;18.12;72.56;99021.94;5095084;28;20289;-59
2023/07/28 03:08:11;;;;;;;0.40;0.40;;;;;;;18.08;73.18;99018.69;5096268;28;20436;-59
2023/07/28 03:10:42;;;;;;;1.25;0.80;;;;;;;18.10;72.71;99019.44;5094741;28;20071;-59
2023/07/28 03:13:11;;;;;;;3.67;0.60;;;;;;;18.14;72.38;99015.81;5094735;28;20501;-59
2023/07/28 03:15:39;;;;;;;0.63;0.63;;;;;;;18.13;72.65;99009.00;5095025;28;20043;-60
2023/07/28 03:18:09;;;;;;;0.60;0.60;;;;;;;18.15;72.38;99009.78;5094586;28;20470;-59
2023/07/28 03:20:37;;;;;;;1.00;0.90;;;;;;;18.18;72.11;99016.53;5094850;28;20032;-60
2023/07/28 03:23:06;;;;;;;0.52;0.52;;;;;;;18.18;72.15;99012.22;5096558;28;20470;-60
2023/07/28 03:25:36;;;;;;;0.68;0.68;;;;;;;18.21;72.16;99017.25;5095919;28;20062;-59
2023/07/28 03:28:06;;;;;;;0.60;0.60;;;;;;;18.24;72.33;99017.13;5094729;28;20452;-60
2023/07/28 03:30:35;;;;;;;0.70;0.70;;;;;;;18.27;72.37;99021.31;5095537;28;20047;-60
2023/07/28 03:33:04;;;;;;;0.43;0.43;;;;;;;18.28;72.17;99018.69;5094584;28;20108;-60
2023/07/28 03:35:33;;;;;;;0.73;0.73;;;;;;;18.29;72.45;99017.78;5095394;28;20044;-60
2023/07/28 03:38:08;;;;;;;0.52;0.52;;;;;;;18.31;72.68;99028.88;5094602;28;20051;-60
2023/07/28 03:40:38;;;;;;;0.88;0.85;;;;;;;18.29;72.97;99025.53;5095575;28;20048;-60
2023/07/28 03:43:09;;;;;;;0.70;0.70;;;;;;;18.23;73.49;99036.13;5093797;28;20055;-61
2023/07/28 03:45:38;;;;;;;0.65;0.65;;;;;;;18.17;74.13;99033.78;5094325;28;20489;-59
2023/07/28 03:48:08;;;;;;;0.47;0.47;;;;;;;18.12;75.44;99037.44;5094051;28;20379;-60
2023/07/28 03:50:37;;;;;;;0.65;0.65;;;;;;;18.13;75.81;99040.00;5095032;28;20049;-60
2023/07/28 03:53:06;;;;;;;0.40;0.40;;;;;;;18.07;76.31;99046.25;5093531;28;20093;-60
2023/07/28 03:55:36;;;;;;;0.50;0.50;;;;;;;17.99;77.04;99052.63;5095339;28;20450;-60
2023/07/28 03:58:05;;;;;;;0.73;0.73;;;;;;;17.98;77.49;99046.63;5095286;28;20036;-60
2023/07/28 04:00:36;;;;;;;0.40;0.40;;;;;;;18.03;77.88;99038.69;5094907;28;20040;-60
2023/07/28 04:03:04;;;;;;;1.67;1.08;;;;;;;18.00;78.44;99044.81;5093861;28;20051;-60
2023/07/28 04:05:33;;;;;;;0.97;0.53;;;;;;;18.02;78.78;99049.91;5094776;28;20040;-60
2023/07/28 04:08:02;;;;;;;0.50;0.50;;;;;;;18.02;79.17;99039.56;5093724;28;20275;-60
2023/07/28 04:10:31;;;;;;;0.47;0.47;;;;;;;18.04;79.85;99041.19;5093553;28;20277;-60
2023/07/28 04:13:00;;;;;;;0.38;0.38;;;;;;;18.05;79.93;99029.13;5094781;28;20040;-60
2023/07/28 04:15:29;;;;;;;0.40;0.40;;;;;;;18.06;80.14;99028.22;5094711;28;20126;-60
2023/07/28 04:17:59;;;;;;;1.50;1.40;;;;;;;18.06;80.39;99033.41;5094622;28;20047;-60
2023/07/28 04:20:28;;;;;;;1.00;0.95;;;;;;;17.98;80.41;99020.81;5093696;28;20356;-60
2023/07/28 04:22:57;;;;;;;0.60;0.60;;;;;;;17.97;81.08;99023.47;5093975;28;20434;-60
2023/07/28 04:25:27;;;;;;;0.60;0.60;;;;;;;17.99;81.29;99017.34;5094871;28;20051;-60
2023/07/28 04:27:57;;;;;;;0.63;0.63;;;;;;;18.04;81.33;99025.69;5093494;28;20105;-59
2023/07/28 04:30:26;;;;;;;0.60;0.60;;;;;;;18.12;81.28;99025.38;5094392;28;20047;-60
2023/07/28 04:32:55;;;;;;;0.90;0.90;;;;;;;18.19;81.09;99019.06;5093130;28;20036;-60
2023/07/28 04:35:33;;;;;;;0.50;0.50;;;;;;;18.20;81.24;99018.16;5094355;28;20107;-59
2023/07/28 04:38:17;;;;;;;0.50;0.50;;;;;;;18.23;80.89;99019.78;5094921;28;20055;-59
2023/07/28 04:40:56;;;;;;;0.73;0.73;;;;;;;18.24;80.51;99001.63;5094324;28;20440;-60
2023/07/28 04:43:42;;;;;;;0.57;0.57;;;;;;;18.25;79.85;99002.47;5093385;28;20044;-60
2023/07/28 04:46:11;;;;;;;0.70;0.70;;;;;;;18.25;79.71;98998.16;5094237;28;20089;-60
2023/07/28 04:48:41;;;;;;;1.52;0.80;;;;;;;18.21;78.82;99009.50;5094064;28;20555;-59
2023/07/28 04:51:32;;;;;;;0.40;0.40;;;;;;;18.21;78.62;99017.25;5093965;28;20498;-59
2023/07/28 04:54:12;;;;;;;0.45;0.45;;;;;;;18.21;78.04;99012.06;5093999;28;20048;-60
2023/07/28 04:56:41;;;;;;;0.50;0.50;;;;;;;18.21;77.92;99019.81;5093061;28;20127;-59
2023/07/28 04:59:11;;;;;;;0.60;0.60;;;;;;;18.28;77.53;99017.84;5093962;28;20090;-60
2023/07/28 05:01:40;;;;;;;1.30;1.05;;;;;;;18.29;77.44;99015.19;5094199;28;20028;-60
2023/07/28 05:04:10;;;;;;;1.10;0.85;;;;;;;18.29;77.15;99012.59;5094067;28;20444;-60
2023/07/28 05:06:41;;;;;;;1.55;1.20;;;;;;;18.29;76.82;99015.19;5092592;28;20040;-60
2023/07/28 05:09:10;;;;;;;0.65;0.65;;;;;;;18.30;76.56;99022.03;5093252;28;20437;-59
2023/07/28 05:11:39;;;;;;;0.70;0.70;;;;;;;18.33;76.38;99011.56;5092897;28;20040;-60
2023/07/28 05:14:08;;;;;;;0.60;0.60;;;;;;;18.35;76.19;99019.25;5092801;28;20129;-59
2023/07/28 05:16:38;;;;;;;0.45;0.45;;;;;;;18.34;76.06;99013.25;5093781;28;20051;-59
2023/07/28 05:19:24;;;;;;;0.50;0.50;;;;;;;18.46;75.89;99015.34;5094059;28;20044;-59
2023/07/28 05:22:00;;;;;;;0.50;0.50;;;;;;;18.52;75.73;99020.22;5093934;28;20052;-60
2023/07/28 05:24:39;;;;;;;0.70;0.70;;;;;;;18.58;75.67;99027.72;5093604;28;20040;-60
2023/07/28 05:27:08;;;;;;;0.52;0.52;;;;;;;18.66;75.57;99040.31;5092423;28;20127;-59
2023/07/28 05:29:37;;;;;;;0.70;0.70;;;;;;;18.69;75.61;99043.59;5093982;28;20043;-59
2023/07/28 05:32:08;;;;;;;0.70;0.70;;;;;;;18.71;75.82;99049.53;5092441;28;20044;-60
2023/07/28 05:34:48;;;;;;;0.73;0.70;;;;;;;18.73;75.62;99050.34;5093500;28;20048;-59
2023/07/28 05:37:19;;;;;;;0.40;0.40;;;;;;;18.78;75.46;99046.69;5092335;28;20040;-60
2023/07/28 05:39:48;;;;;;;0.45;0.45;;;;;;;18.83;75.63;99055.09;5092379;28;20048;-60
2023/07/28 05:42:17;;;;;;;0.45;0.45;;;;;;;18.85;75.93;99055.88;5092459;28;20063;-60
2023/07/28 05:44:48;;;;;;;0.55;0.55;;;;;;;18.90;75.96;99059.09;5093157;28;20044;-60
2023/07/28 05:47:17;;;;;;;0.57;0.57;;;;;;;18.88;76.09;99060.91;5092153;28;20064;-60
2023/07/28 05:49:45;;;;;;;0.40;0.40;;;;;;;18.91;76.32;99047.84;5092288;28;20569;-60
2023/07/28 05:52:15;;;;;;;0.50;0.50;;;;;;;18.93;76.13;99048.63;5093380;28;20235;-60
2023/07/28 05:54:45;;;;;;;0.60;0.60;;;;;;;18.90;76.22;99056.50;5093388;28;20044;-59
2023/07/28 05:57:14;;;;;;;0.60;0.60;;;;;;;18.89;76.32;99062.56;5092282;28;20090;-60
2023/07/28 05:59:43;;;;;;;0.52;0.52;;;;;;;18.90;76.08;99064.25;5092213;28;20051;-60
2023/07/28 06:02:12;;;;;;;0.52;0.52;;;;;;;18.97;76.02;99065.66;5092308;28;20040;-60
2023/07/28 06:04:48;;;;;;;0.60;0.60;;;;;;;19.01;75.91;99052.53;5093593;28;20048;-59
2023/07/28 06:07:17;;;;;;;0.40;0.40;;;;;;;19.09;76.10;99054.78;5108064;28;20550;-60
2023/07/28 06:09:47;;;;;;;0.40;0.40;;;;;;;19.12;76.13;99065.00;5112243;28;20040;-60
2023/07/28 06:12:17;;;;;;;0.50;0.50;;;;;;;19.17;75.95;99068.22;5112385;28;20044;-60
2023/07/28 06:14:46;;;;;;;0.82;0.82;;;;;;;19.19;76.21;99061.22;5108907;28;20049;-60
2023/07/28 06:17:15;;;;;;;0.88;0.75;;;;;;;19.22;76.05;99055.88;5109044;28;20489;-60
2023/07/28 06:19:44;;;;;;;0.60;0.60;;;;;;;19.19;75.57;99056.88;5106990;28;20510;-59
2023/07/28 06:22:13;;;;;;;0.93;0.85;;;;;;;19.17;74.94;99057.88;5108797;28;20042;-60
2023/07/28 06:24:44;;;;;;;0.68;0.68;;;;;;;19.16;75.05;99057.00;5116694;28;20047;-60
2023/07/28 06:27:15;;;;;;;20.77;13.77;;;;;;;19.11;74.58;99064.16;5116401;28;20040;-60
2023/07/28 06:29:44;;;;;;;6.43;3.17;;;;;;;19.13;74.29;99051.13;5116153;28;20292;-60
2023/07/28 06:32:12;;;;;;;0.57;0.57;;;;;;;19.10;74.05;99051.28;5116249;28;20039;-60
2023/07/28 06:34:41;;;;;;;0.57;0.57;;;;;;;19.16;73.90;99056.16;5117268;28;20370;-60
2023/07/28 06:37:10;;;;;;;0.77;0.70;;;;;;;19.22;73.94;99035.19;5117014;28;20307;-60
2023/07/28 06:39:39;;;;;;;1.33;0.93;;;;;;;19.22;73.87;99041.19;5114393;28;20031;-60
2023/07/28 06:42:08;;;;;;;0.85;0.85;;;;;;;19.24;73.60;99043.72;5116930;28;20071;-60
2023/07/28 06:44:41;;;;;;;0.70;0.70;;;;;;;19.34;73.15;99052.72;5100539;28;20051;-60
2023/07/28 06:47:10;;;;;;;0.40;0.40;;;;;;;19.38;73.05;99049.13;5095217;28;20044;-60
2023/07/28 06:49:39;;;;;;;0.50;0.50;;;;;;;19.36;72.74;99053.56;5096642;28;20032;-60
2023/07/28 06:52:08;;;;;;;0.60;0.60;;;;;;;19.38;72.55;99059.50;5095164;28;20071;-60
2023/07/28 06:54:38;;;;;;;0.45;0.45;;;;;;;19.48;72.26;99047.81;5109842;28;20118;-60
2023/07/28 06:57:08;;;;;;;0.80;0.80;;;;;;;19.61;71.95;99043.72;5116909;28;20101;-60
2023/07/28 06:59:39;;;;;;;0.70;0.70;;;;;;;19.76;71.55;99048.16;5117192;28;20051;-60
2023/07/28 07:02:10;;;;;;;1.33;1.23;;;;;;;19.87;71.63;99040.72;5116768;28;20039;-60
2023/07/28 07:04:39;;;;;;;0.50;0.50;;;;;;;19.97;71.22;99031.56;5114270;28;20050;-60
2023/07/28 07:07:08;;;;;;;0.52;0.52;;;;;;;20.07;70.95;99034.56;5114329;28;20052;-60
2023/07/28 07:09:37;;;;;;;0.97;0.87;;;;;;;20.15;70.67;99035.03;5115450;28;20131;-60
2023/07/28 07:12:06;;;;;;;0.63;0.63;;;;;;;20.22;70.77;99030.38;5116591;28;20126;-60
2023/07/28 07:14:35;;;;;;;0.60;0.60;;;;;;;20.22;70.39;99031.25;5109729;28;20039;-61
2023/07/28 07:17:07;;;;;;;1.13;0.63;;;;;;;20.17;69.22;99027.16;5095633;27;20072;-60
2023/07/28 07:19:38;;;;;;;0.60;0.60;;;;;;;20.18;69.21;99028.84;5095706;28;20048;-60
2023/07/28 07:22:08;;;;;;;0.47;0.47;;;;;;;20.11;69.12;99022.31;5095998;28;20498;-60
2023/07/28 07:24:36;;;;;;;0.63;0.63;;;;;;;20.08;68.86;99017.25;5108266;28;20069;-60
2023/07/28 07:27:06;;;;;;;0.95;0.88;;;;;;;20.08;68.69;99024.09;5114913;28;20757;-60
2023/07/28 07:29:35;;;;;;;0.40;0.40;;;;;;;20.04;68.58;99032.09;5113758;28;20040;-60
2023/07/28 07:32:05;;;;;;;0.50;0.50;;;;;;;20.01;68.86;99033.09;5097077;28;20063;-60
2023/07/28 07:34:36;;;;;;;7.20;5.93;;;;;;;20.05;68.73;99034.63;5099877;28;20040;-60
2023/07/28 07:37:08;;;;;;;1.58;1.25;;;;;;;20.05;69.08;99039.81;5104234;28;20104;-60
2023/07/28 07:39:36;;;;;;;0.82;0.75;;;;;;;20.08;69.31;99032.81;5099436;28;20052;-60
2023/07/28 07:42:06;;;;;;;0.50;0.50;;;;;;;20.08;69.48;99030.22;5096949;28;20085;-60
2023/07/28 07:44:35;;;;;;;;;;;;;;;20.10;69.48;99030.97;5097389;28;20048;-60
2023/07/28 07:47:13;;;;;;;0.32;0.32;;;;;;;20.08;69.17;99030.22;5104453;28;20018;-60
2023/07/28 07:49:42;;;;;;;0.40;0.40;;;;;;;20.08;68.98;99033.66;5105984;28;20046;-60
2023/07/28 07:52:12;;;;;;;0.82;0.82;;;;;;;20.11;68.65;99030.06;5115741;28;20036;-60
2023/07/28 07:54:43;;;;;;;0.98;0.60;;;;;;;20.16;68.52;99043.59;5113683;28;20051;-61
2023/07/28 07:57:12;;;;;;;0.40;0.40;;;;;;;20.22;68.34;99058.88;5112393;28;20044;-61
2023/07/28 07:59:40;;;;;;;0.50;0.50;;;;;;;20.23;68.59;99068.38;5106232;28;20311;-60
2023/07/28 08:02:09;;;;;;;0.82;0.82;;;;;;;20.19;68.68;99072.81;5093052;28;20044;-60
2023/07/28 08:04:38;;;;;;;1.07;0.90;;;;;;;20.18;68.41;99065.13;5094979;28;20044;-61
2023/07/28 08:07:07;;;;;;;1.20;0.88;;;;;;;20.18;68.25;99052.19;5094829;28;20039;-60
2023/07/28 08:09:38;;;;;;;0.80;0.80;;;;;;;20.25;68.22;99048.41;5094906;28;20431;-60
2023/07/28 08:12:08;;;;;;;0.57;0.57;;;;;;;20.32;68.33;99049.75;5114268;28;20489;-60
2023/07/28 08:14:37;;;;;;;0.50;0.50;;;;;;;20.40;68.66;99039.81;5115031;28;20493;-60
2023/07/28 08:17:06;;;;;;;12.82;1.35;;;;;;;20.49;68.03;99050.56;5115005;28;20036;-60
2023/07/28 08:19:35;;;;;;;0.85;0.70;;;;;;;20.50;67.08;99054.84;5114207;28;20153;-60
2023/07/28 08:22:04;;;;;;;0.90;0.80;;;;;;;20.46;66.57;99061.13;5113863;28;20108;-60
2023/07/28 08:24:33;;;;;;;0.60;0.60;;;;;;;20.42;66.73;99075.13;5115198;28;20503;-61
2023/07/28 08:27:04;;;;;;;0.50;0.50;;;;;;;20.43;66.74;99075.97;5115094;28;20068;-61
2023/07/28 08:29:32;;;;;;;0.45;0.45;;;;;;;20.40;66.53;99065.75;5112491;28;20142;-61
2023/07/28 08:32:01;;;;;;;0.68;0.68;;;;;;;20.36;66.30;99064.22;5114691;28;20572;-61
2023/07/28 08:34:31;;;;;;;0.90;0.90;;;;;;;20.43;66.15;99073.38;5105631;28;20037;-61
2023/07/28 08:36:59;;;;;;;0.60;0.60;;;;;;;20.43;66.32;99070.78;5094619;28;20040;-61
2023/07/28 08:39:28;;;;;;;1.17;1.03;;;;;;;20.44;66.50;99072.47;5104602;28;20043;-61
2023/07/28 08:42:04;;;;;;;0.50;0.50;;;;;;;20.44;66.57;99068.09;5114591;28;20753;-60
2023/07/28 08:44:35;;;;;;;0.40;0.40;;;;;;;20.49;66.40;99080.88;5112675;28;20139;-62
2023/07/28 08:47:05;;;;;;;0.70;0.63;;;;;;;20.55;66.56;99080.53;5100723;28;20044;-60
2023/07/28 08:49:36;;;;;;;0.50;0.50;;;;;;;20.60;66.58;99070.78;5097147;28;20067;-61
2023/07/28 08:52:06;;;;;;;0.60;0.60;;;;;;;20.68;66.17;99060.84;5093547;28;20040;-61
2023/07/28 08:54:35;;;;;;;0.60;0.60;;;;;;;20.74;66.53;99060.53;5099456;28;20054;-61
2023/07/28 08:57:06;;;;;;;0.60;0.60;;;;;;;20.92;66.47;99063.91;5114249;28;20073;-60
2023/07/28 08:59:36;;;;;;;0.50;0.50;;;;;;;21.03;66.47;99066.78;5102160;28;20485;-61
2023/07/28 09:02:06;;;;;;;0.40;0.40;;;;;;;21.06;66.02;99051.09;5100363;28;20097;-61
2023/07/28 09:04:35;;;;;;;0.60;0.60;;;;;;;21.14;66.05;99052.34;5096594;28;20074;-62
2023/07/28 09:07:07;;;;;;;0.50;0.50;;;;;;;21.31;65.61;99048.81;5091917;28;20044;-61
2023/07/28 09:09:37;;;;;;;0.43;0.43;;;;;;;21.40;64.96;99039.72;5094017;28;20044;-61
2023/07/28 09:12:09;;;;;;;0.95;0.80;;;;;;;21.35;64.45;99050.34;5093736;28;20075;-61
2023/07/28 09:14:40;;;;;;;0.55;0.55;;;;;;;21.43;64.34;99044.75;5094107;28;20072;-61
2023/07/28 09:17:10;;;;;;;1.13;1.02;;;;;;;21.44;64.15;99049.00;5093911;28;20036;-61
2023/07/28 09:19:53;;;;;;;0.88;0.88;;;;;;;21.59;64.11;99042.97;5093680;28;20040;-62
2023/07/28 09:22:22;;;;;;;0.70;0.70;;;;;;;21.72;63.53;99036.16;5093655;28;20051;-61
2023/07/28 09:24:51;;;;;;;0.83;0.83;;;;;;;21.83;62.97;99031.22;5095258;28;20048;-64
2023/07/28 09:27:23;;;;;;;0.52;0.52;;;;;;;22.01;62.55;99027.56;5104710;28;20619;-61
2023/07/28 09:29:54;;;;;;;0.73;0.73;;;;;;;22.21;62.54;99027.28;5098082;28;20047;-61
2023/07/28 09:32:36;;;;;;;0.80;0.80;;;;;;;22.22;61.84;99030.72;5093575;28;20058;-62
2023/07/28 09:35:10;;;;;;;0.98;0.95;;;;;;;22.35;61.46;99032.50;5097090;28;20036;-62
2023/07/28 09:37:41;;;;;;;0.52;0.52;;;;;;;22.51;61.03;99022.84;5113811;28;20557;-62
2023/07/28 09:40:12;;;;;;;0.85;0.70;;;;;;;22.60;60.71;99024.88;5112419;28;20126;-63
2023/07/28 09:42:44;;;;;;;2.92;0.98;;;;;;;22.60;60.25;99032.69;5113954;28;20439;-61
2023/07/28 09:45:13;;;;;;;0.50;0.50;;;;;;;22.67;59.95;99022.81;5113606;28;20058;-62
2023/07/28 09:48:07;;;;;;;0.90;0.73;;;;;;;22.82;60.13;99019.25;5100477;28;20040;-61
2023/07/28 09:50:39;;;;;;;0.70;0.60;;;;;;;22.93;59.83;99018.63;5093363;28;20044;-61
2023/07/28 09:53:11;;;;;;;0.60;0.60;;;;;;;22.97;59.62;99014.88;5097473;28;20044;-61
2023/07/28 09:55:43;;;;;;;0.90;0.90;;;;;;;23.03;59.64;99014.50;5099094;28;20127;-61
2023/07/28 09:58:19;;;;;;;0.60;0.60;;;;;;;23.08;59.44;99010.69;5098516;28;20104;-62
2023/07/28 10:00:50;;;;;;;0.85;0.40;;;;;;;23.22;59.47;99015.03;5097359;28;20064;-61
2023/07/28 10:03:19;;;;;;;0.90;0.90;;;;;;;23.31;59.50;99011.84;5109818;28;20493;-61
2023/07/28 10:05:48;;;;;;;0.60;0.60;;;;;;;23.50;59.21;99004.56;5115876;28;20085;-63
2023/07/28 10:08:18;;;;;;;0.63;0.63;;;;;;;23.75;58.30;99009.88;5101506;28;20035;-62
2023/07/28 10:10:47;;;;;;;;;;;;;;;24.02;57.81;98995.00;5115803;28;20043;-61
2023/07/28 10:13:22;;;;;;;;;;;;;;;24.22;57.57;99000.69;5119237;28;19930;-62
2023/07/28 10:15:52;;;;;;;0.50;0.50;;;;;;;24.41;57.44;98993.31;5104531;28;19927;-61
2023/07/28 10:18:22;;;;;;;0.88;0.88;;;;;;;24.40;56.58;98996.88;5097288;28;20051;-62
2023/07/28 10:20:51;;;;;;;0.70;0.70;;;;;;;24.67;56.77;98994.97;5116171;28;20067;-62
2023/07/28 10:23:22;;;;;;;1.50;0.90;;;;;;;24.96;56.18;99001.63;5117667;28;20040;-61
2023/07/28 10:25:59;;;;;;;0.80;0.80;;;;;;;25.24;55.65;99001.34;5107543;28;20481;-62
2023/07/28 10:28:32;;;;;;;1.40;0.82;;;;;;;25.43;54.83;99002.66;5117236;28;20481;-61
2023/07/28 10:31:03;;;;;;;0.68;0.68;;;;;;;25.60;54.47;98994.47;5117174;28;20488;-61
2023/07/28 10:33:34;;;;;;;0.50;0.50;;;;;;;25.65;53.60;98995.78;5117122;28;20047;-61
2023/07/28 10:36:14;;;;;;;0.60;0.60;;;;;;;25.56;52.76;99001.69;5116119;28;20078;-62
2023/07/28 10:38:45;;;;;;;1.02;1.02;;;;;;;25.46;52.68;98995.44;5116933;28;20473;-61
2023/07/28 10:41:16;;;;;;;0.85;0.80;;;;;;;25.63;52.40;98991.59;5116913;28;20097;-62
2023/07/28 10:43:47;;;;;;;0.70;0.70;;;;;;;25.88;50.91;98991.47;5115596;28;20442;-62
2023/07/28 10:46:18;;;;;;;4.28;0.60;;;;;;;26.07;50.54;98989.16;5117043;28;20047;-60
2023/07/28 10:48:49;;;;;;;0.80;0.80;;;;;;;26.13;50.09;98996.56;5117674;28;20050;-61
2023/07/28 10:51:24;;;;;;;0.55;0.55;;;;;;;25.97;49.68;98996.00;5115530;28;20066;-61
2023/07/28 10:53:57;;;;;;;8.77;6.15;;;;;;;25.80;49.83;98988.59;5113334;28;21456;-61
2023/07/28 10:56:27;;;;;;;3.13;2.05;;;;;;;25.74;50.03;98989.06;5095671;28;20072;-62
2023/07/28 10:59:00;;;;;;;;;;;;;;;25.79;50.26;98981.69;5112310;28;20032;-61
2023/07/28 11:01:34;;;;;;;0.80;0.80;;;;;;;26.08;50.11;98979.53;5116753;27;20014;-62
2023/07/28 11:04:13;;;;;;;0.55;0.55;;;;;;;26.47;49.94;98979.97;5108522;28;20036;-62
2023/07/28 11:06:44;;;;;;;0.50;0.50;;;;;;;26.68;48.52;98966.19;5096435;28;20129;-61
2023/07/28 11:09:15;;;;;;;0.52;0.52;;;;;;;26.72;47.96;98975.47;5096208;28;20285;-62
2023/07/28 11:11:45;;;;;;;0.68;0.65;;;;;;;26.79;47.80;98963.56;5095879;28;20498;-62
2023/07/28 11:14:18;;;;;;;0.47;0.47;;;;;;;26.96;47.98;98976.19;5104526;28;20040;-61
2023/07/28 11:16:48;;;;;;;0.47;0.47;;;;;;;27.18;48.11;98961.28;5116347;27;20108;-62
2023/07/28 11:19:24;;;;;;;0.50;0.50;;;;;;;27.45;48.02;98963.47;5116557;28;20040;-62
2023/07/28 11:21:58;;;;;;;0.40;0.40;;;;;;;27.74;47.31;98969.78;5115547;28;20375;-61
2023/07/28 11:24:27;;;;;;;0.50;0.50;;;;;;;27.74;46.90;98956.66;5115111;28;20044;-62
2023/07/28 11:26:59;;;;;;;1.73;1.10;;;;;;;27.72;46.58;98950.72;5116109;28;20032;-61
2023/07/28 11:29:29;;;;;;;0.60;0.60;;;;;;;27.75;46.73;98953.09;5116114;28;20048;-61
2023/07/28 11:31:58;;;;;;;0.50;0.50;;;;;;;27.46;47.00;98944.16;5116007;28;20043;-62
2023/07/28 11:34:27;;;;;;;0.88;0.88;;;;;;;27.24;46.96;98944.19;5114292;28;20134;-62
2023/07/28 11:36:56;;;;;;;0.40;0.40;;;;;;;27.29;46.59;98931.56;5098983;28;20086;-62
2023/07/28 11:39:25;;;;;;;;;;;;;;;27.48;46.63;98921.28;5095812;28;20093;-62
2023/07/28 11:41:56;;;;;;;0.70;0.70;;;;;;;27.67;46.67;98910.91;5095969;28;19920;-62
2023/07/28 11:44:25;;;;;;;2.05;1.05;;;;;;;27.83;46.59;98911.31;5094325;28;20051;-61
2023/07/28 11:46:55;;;;;;;0.40;0.40;;;;;;;27.97;46.21;98922.44;5104642;28;20048;-62
2023/07/28 11:49:24;;;;;;;0.50;0.50;;;;;;;28.03;46.75;98927.19;5103632;28;20047;-62